createdAt,value
2022-10-16T00:03:17.543Z,100736.38
2022-10-16T00:13:21.541Z,100737.39
2022-10-16T00:23:23.559Z,100745.20
2022-10-16T00:33:25.725Z,100740.03
2022-10-16T00:43:36.066Z,100738.61
2022-10-16T00:53:38.004Z,100734.29
2022-10-16T01:03:40.312Z,100743.75
2022-10-16T01:13:47.696Z,100758.98
2022-10-16T01:24:19.532Z,100765.64
2022-10-16T01:34:39.697Z,100762.89
2022-10-16T01:44:44.750Z,100765.91
2022-10-16T01:54:50.075Z,100787.93
2022-10-16T02:05:02.756Z,100792.67
2022-10-16T02:15:05.045Z,100790.77
2022-10-16T02:25:16.874Z,100789.74
2022-10-16T02:35:21.516Z,100774.79
2022-10-16T02:45:24.647Z,100770.55
2022-10-16T02:55:27.347Z,100781.33
2022-10-16T03:05:29.483Z,100793.65
2022-10-16T03:15:31.465Z,100796.88
2022-10-16T03:25:33.425Z,100807.11
2022-10-16T03:35:35.510Z,100815.20
2022-10-16T03:45:37.475Z,100823.45
2022-10-16T03:55:39.468Z,100832.41
2022-10-16T04:05:41.597Z,100828.37
2022-10-16T04:15:43.655Z,100831.58
2022-10-16T04:25:45.588Z,100836.25
2022-10-16T04:35:47.687Z,100842.27
2022-10-16T04:45:51.708Z,100850.02
2022-10-16T04:55:53.618Z,100861.17
2022-10-16T05:05:55.689Z,100859.05
2022-10-16T05:15:58.336Z,100877.60
2022-10-16T05:26:00.869Z,100882.95
2022-10-16T05:36:08.787Z,100888.19
2022-10-16T05:46:10.707Z,100890.51
2022-10-16T05:56:13.916Z,100902.98
2022-10-16T06:06:18.678Z,100904.19
2022-10-16T06:16:20.913Z,100905.00
2022-10-16T06:26:29.107Z,100916.95
2022-10-16T06:36:31.516Z,100927.50
2022-10-16T06:46:33.724Z,100941.08
2022-10-16T06:56:35.801Z,100942.70
2022-10-16T07:06:37.960Z,100955.09
2022-10-16T07:16:41.645Z,100967.21
2022-10-16T07:26:46.267Z,100971.45
2022-10-16T07:36:52.534Z,100983.94
2022-10-16T07:46:54.636Z,100986.83
2022-10-16T07:56:56.639Z,100992.14
2022-10-16T08:06:58.746Z,100950.36
2022-10-16T08:17:03.144Z,100975.54
2022-10-16T08:27:05.314Z,100988.17
2022-10-16T08:37:09.189Z,100995.88
2022-10-16T08:47:23.698Z,100998.33
2022-10-16T08:57:30.952Z,101002.14
2022-10-16T09:08:14.733Z,100987.23
2022-10-16T09:18:32.547Z,101000.66
2022-10-16T09:28:35.192Z,101017.27
2022-10-16T09:38:38.190Z,101021.67
2022-10-16T09:48:50.433Z,101012.45
2022-10-16T09:58:55.236Z,100999.52
2022-10-16T10:09:17.100Z,100983.86
2022-10-16T10:19:20.088Z,100988.99
2022-10-16T10:29:52.481Z,100985.30
2022-10-16T10:40:00.971Z,100986.69
2022-10-16T10:50:21.883Z,100980.77
2022-10-16T11:00:30.030Z,100964.29
2022-10-16T11:10:43.862Z,100968.34
2022-10-16T11:20:52.029Z,100975.80
2022-10-16T11:31:00.420Z,100969.98
2022-10-16T11:41:29.521Z,100972.63
2022-10-16T11:51:40.410Z,100972.15
2022-10-16T12:01:42.335Z,100981.46
2022-10-16T12:11:44.669Z,100986.37
2022-10-16T12:21:47.844Z,100971.55
2022-10-16T12:31:54.816Z,100964.70
2022-10-16T12:42:07.209Z,100963.98
2022-10-16T12:52:39.776Z,100968.52
2022-10-16T13:03:15.026Z,100976.36
2022-10-16T13:13:40.315Z,100983.94
2022-10-16T13:24:09.868Z,100987.77
2022-10-16T13:34:21.902Z,100989.77
2022-10-16T13:44:24.936Z,100997.23
2022-10-16T13:54:31.141Z,101004.81
2022-10-16T14:04:34.831Z,101012.67
2022-10-16T14:14:53.079Z,101019.39
2022-10-16T14:24:55.138Z,101021.14
2022-10-16T14:34:56.999Z,101017.85
2022-10-16T14:44:59.783Z,101022.84
2022-10-16T14:55:01.905Z,101033.14
2022-10-16T15:05:25.807Z,101043.10
2022-10-16T15:15:48.293Z,101037.98
2022-10-16T15:25:54.508Z,101039.45
2022-10-16T15:35:56.944Z,101039.02
2022-10-16T15:46:07.340Z,101051.69
2022-10-16T15:56:14.382Z,101060.40
2022-10-16T16:06:18.323Z,101073.95
2022-10-16T16:16:21.364Z,101086.92
2022-10-16T16:26:31.010Z,101095.30
2022-10-16T16:36:34.399Z,101102.02
2022-10-16T16:46:37.069Z,101107.55
2022-10-16T16:56:39.950Z,101121.80
2022-10-16T17:06:42.852Z,101132.12
2022-10-16T17:16:45.337Z,101145.34
2022-10-16T17:26:49.419Z,101150.94
2022-10-16T17:36:51.771Z,101152.25
2022-10-16T17:46:56.411Z,101169.33
2022-10-16T17:56:58.570Z,101176.48
2022-10-16T18:07:00.862Z,101189.69
2022-10-16T18:17:03.251Z,101207.75
2022-10-16T18:27:08.255Z,101218.04
2022-10-16T18:37:10.692Z,101232.46
2022-10-16T18:47:12.926Z,101243.23
2022-10-16T18:57:17.391Z,101252.87
2022-10-16T19:07:20.317Z,101257.24
2022-10-16T19:17:22.629Z,101264.12
2022-10-16T19:27:25.074Z,101274.86
2022-10-16T19:37:27.692Z,101275.80
2022-10-16T19:47:29.903Z,101286.46
2022-10-16T20:07:42.922Z,101300.64
2022-10-16T20:17:45.301Z,101309.30
2022-10-16T20:27:47.501Z,101323.33
2022-10-16T20:37:49.643Z,101339.29
2022-10-16T20:47:51.880Z,101353.66
2022-10-16T20:57:54.502Z,101369.25
2022-10-16T21:07:56.443Z,101370.66
2022-10-16T21:17:58.468Z,101377.61
2022-10-16T21:28:00.482Z,101385.98
2022-10-16T21:38:03.829Z,101387.45
2022-10-16T21:48:05.976Z,101394.66
2022-10-16T21:58:07.870Z,101404.02
2022-10-16T22:08:09.932Z,101406.45
2022-10-16T22:18:12.072Z,101412.39
2022-10-16T22:28:14.453Z,101416.57
2022-10-16T22:38:16.311Z,101418.15
2022-10-16T22:48:18.546Z,101433.20
2022-10-16T22:58:20.891Z,101443.87
2022-10-16T23:08:22.809Z,101459.33
2022-10-16T23:18:24.865Z,101470.01
2022-10-16T23:28:26.810Z,101474.21
2022-10-16T23:38:29.508Z,101478.05
2022-10-16T23:48:31.755Z,101489.89
2022-10-16T23:58:33.643Z,101505.02
